Terminal Aerodrome Forecast
Issued by NWS Cleveland, OH

Home | Current Version | Previous Version | Text Only | Print | Product List | Glossary On
Versions: 1 2 3 4 5 6 7 8 9 10 11 12 13 14 15 16 17 18 19 20
038
FTUS41 KCLE 081130
TAFERI
TAF
KERI 081130Z 0812/0912 23014G20KT P6SM OVC030
      TEMPO 0812/0816 4SM -SHSN SCT020 BKN035
     FM081600 25015G25KT 5SM -SHSN OVC030
     FM081900 26016G30KT 3SM -SHSN OVC035
     FM082200 27015G25KT 2SM -SHSN OVC025
     FM090100 27014G22KT 1SM -SHSN OVC015=

USA.gov is the U.S. government's official web portal to all federal, state and local government web resources and services.